sensor_id;sensor_type;location;lat;lon;timestamp;temperature;humidity
28374;DHT22;15616;40.148;-102.718;2022-12-05T00:00:45;20.00;47.30
28374;DHT22;15616;40.148;-102.718;2022-12-05T00:03:10;19.90;47.30
28374;DHT22;15616;40.148;-102.718;2022-12-05T00:05:40;20.00;47.40
28374;DHT22;15616;40.148;-102.718;2022-12-05T00:08:06;20.00;47.40
28374;DHT22;15616;40.148;-102.718;2022-12-05T00:10:36;19.90;47.40
28374;DHT22;15616;40.148;-102.718;2022-12-05T00:13:02;20.00;47.40
28374;DHT22;15616;40.148;-102.718;2022-12-05T00:15:28;19.90;47.40
28374;DHT22;15616;40.148;-102.718;2022-12-05T00:17:54;19.90;47.40
28374;DHT22;15616;40.148;-102.718;2022-12-05T00:20:19;20.00;47.50
28374;DHT22;15616;40.148;-102.718;2022-12-05T00:22:45;20.00;47.40
28374;DHT22;15616;40.148;-102.718;2022-12-05T00:25:11;20.00;47.40
28374;DHT22;15616;40.148;-102.718;2022-12-05T00:27:38;20.00;47.40
28374;DHT22;15616;40.148;-102.718;2022-12-05T00:30:05;20.00;47.40
28374;DHT22;15616;40.148;-102.718;2022-12-05T00:32:31;20.00;47.30
28374;DHT22;15616;40.148;-102.718;2022-12-05T00:34:57;20.00;47.40
28374;DHT22;15616;40.148;-102.718;2022-12-05T00:37:23;20.00;47.40
28374;DHT22;15616;40.148;-102.718;2022-12-05T00:39:49;20.00;47.40
28374;DHT22;15616;40.148;-102.718;2022-12-05T00:42:15;20.00;47.40
28374;DHT22;15616;40.148;-102.718;2022-12-05T00:44:41;20.00;47.40
28374;DHT22;15616;40.148;-102.718;2022-12-05T00:47:07;20.00;47.40
28374;DHT22;15616;40.148;-102.718;2022-12-05T00:49:33;20.00;47.40
28374;DHT22;15616;40.148;-102.718;2022-12-05T00:51:59;20.00;47.40
28374;DHT22;15616;40.148;-102.718;2022-12-05T00:54:24;19.90;47.40
28374;DHT22;15616;40.148;-102.718;2022-12-05T00:56:50;19.90;47.40
28374;DHT22;15616;40.148;-102.718;2022-12-05T00:59:21;19.90;47.40
28374;DHT22;15616;40.148;-102.718;2022-12-05T01:01:49;19.90;47.40
28374;DHT22;15616;40.148;-102.718;2022-12-05T01:04:21;19.90;47.50
28374;DHT22;15616;40.148;-102.718;2022-12-05T01:06:47;19.90;47.50
28374;DHT22;15616;40.148;-102.718;2022-12-05T01:09:16;19.90;47.50
28374;DHT22;15616;40.148;-102.718;2022-12-05T01:11:43;20.00;47.50
28374;DHT22;15616;40.148;-102.718;2022-12-05T01:14:10;20.00;47.50
28374;DHT22;15616;40.148;-102.718;2022-12-05T01:16:39;20.00;47.50
28374;DHT22;15616;40.148;-102.718;2022-12-05T01:19:11;20.00;47.50
28374;DHT22;15616;40.148;-102.718;2022-12-05T01:21:37;20.00;47.50
28374;DHT22;15616;40.148;-102.718;2022-12-05T01:24:04;20.00;47.40
28374;DHT22;15616;40.148;-102.718;2022-12-05T01:26:30;20.00;47.40
28374;DHT22;15616;40.148;-102.718;2022-12-05T01:28:55;20.00;47.40
28374;DHT22;15616;40.148;-102.718;2022-12-05T01:31:23;20.00;47.40
28374;DHT22;15616;40.148;-102.718;2022-12-05T01:33:50;20.00;47.40
28374;DHT22;15616;40.148;-102.718;2022-12-05T01:36:16;20.00;47.40
28374;DHT22;15616;40.148;-102.718;2022-12-05T01:38:43;20.00;47.50
28374;DHT22;15616;40.148;-102.718;2022-12-05T01:41:14;20.00;47.50
28374;DHT22;15616;40.148;-102.718;2022-12-05T01:46:20;20.00;47.50
28374;DHT22;15616;40.148;-102.718;2022-12-05T01:48:46;19.90;47.50
28374;DHT22;15616;40.148;-102.718;2022-12-05T01:51:12;20.00;47.50
28374;DHT22;15616;40.148;-102.718;2022-12-05T01:53:38;19.90;47.50
28374;DHT22;15616;40.148;-102.718;2022-12-05T01:56:04;19.90;47.50
28374;DHT22;15616;40.148;-102.718;2022-12-05T01:58:33;19.90;47.50
28374;DHT22;15616;40.148;-102.718;2022-12-05T02:01:00;19.90;47.50
28374;DHT22;15616;40.148;-102.718;2022-12-05T02:03:26;19.90;47.50
28374;DHT22;15616;40.148;-102.718;2022-12-05T02:05:55;19.90;47.50
28374;DHT22;15616;40.148;-102.718;2022-12-05T02:08:22;20.00;47.50
28374;DHT22;15616;40.148;-102.718;2022-12-05T02:10:50;20.00;47.50
28374;DHT22;15616;40.148;-102.718;2022-12-05T02:13:41;20.00;47.50
28374;DHT22;15616;40.148;-102.718;2022-12-05T02:16:39;20.00;47.50
28374;DHT22;15616;40.148;-102.718;2022-12-05T02:19:49;20.00;47.50
28374;DHT22;15616;40.148;-102.718;2022-12-05T02:25:09;20.00;47.50
28374;DHT22;15616;40.148;-102.718;2022-12-05T02:30:23;20.00;47.60
28374;DHT22;15616;40.148;-102.718;2022-12-05T02:33:19;20.00;47.50
28374;DHT22;15616;40.148;-102.718;2022-12-05T02:35:55;19.90;47.50
28374;DHT22;15616;40.148;-102.718;2022-12-05T02:38:52;19.90;47.60
28374;DHT22;15616;40.148;-102.718;2022-12-05T02:41:47;20.00;47.60
28374;DHT22;15616;40.148;-102.718;2022-12-05T02:44:30;19.90;47.60
28374;DHT22;15616;40.148;-102.718;2022-12-05T02:46:58;20.00;47.70
28374;DHT22;15616;40.148;-102.718;2022-12-05T02:49:29;20.00;47.60
28374;DHT22;15616;40.148;-102.718;2022-12-05T02:51:57;20.00;47.60
28374;DHT22;15616;40.148;-102.718;2022-12-05T02:54:30;20.00;47.50
28374;DHT22;15616;40.148;-102.718;2022-12-05T02:56:58;20.00;47.50
28374;DHT22;15616;40.148;-102.718;2022-12-05T02:59:25;20.00;47.50
28374;DHT22;15616;40.148;-102.718;2022-12-05T03:01:51;20.00;47.50
28374;DHT22;15616;40.148;-102.718;2022-12-05T03:04:20;20.00;47.50
28374;DHT22;15616;40.148;-102.718;2022-12-05T03:12:43;20.00;47.50
28374;DHT22;15616;40.148;-102.718;2022-12-05T03:15:31;19.90;47.60
28374;DHT22;15616;40.148;-102.718;2022-12-05T03:18:12;20.00;47.60
28374;DHT22;15616;40.148;-102.718;2022-12-05T03:20:46;20.00;47.70
28374;DHT22;15616;40.148;-102.718;2022-12-05T03:23:34;19.90;47.60
28374;DHT22;15616;40.148;-102.718;2022-12-05T03:28:46;20.00;47.60
28374;DHT22;15616;40.148;-102.718;2022-12-05T03:31:20;20.00;47.60
28374;DHT22;15616;40.148;-102.718;2022-12-05T03:33:49;20.00;47.60
28374;DHT22;15616;40.148;-102.718;2022-12-05T03:36:18;20.00;47.50
28374;DHT22;15616;40.148;-102.718;2022-12-05T03:39:20;20.00;47.50
28374;DHT22;15616;40.148;-102.718;2022-12-05T03:44:25;20.00;47.60
28374;DHT22;15616;40.148;-102.718;2022-12-05T03:47:02;20.00;47.60
28374;DHT22;15616;40.148;-102.718;2022-12-05T03:49:49;19.90;47.60
28374;DHT22;15616;40.148;-102.718;2022-12-05T03:52:33;20.00;47.70
28374;DHT22;15616;40.148;-102.718;2022-12-05T03:55:04;20.00;47.60
28374;DHT22;15616;40.148;-102.718;2022-12-05T03:57:39;19.90;47.60
28374;DHT22;15616;40.148;-102.718;2022-12-05T04:00:19;19.90;47.60
28374;DHT22;15616;40.148;-102.718;2022-12-05T04:05:31;20.00;47.70
28374;DHT22;15616;40.148;-102.718;2022-12-05T04:08:05;20.00;47.70
28374;DHT22;15616;40.148;-102.718;2022-12-05T04:10:33;20.00;47.70
28374;DHT22;15616;40.148;-102.718;2022-12-05T04:13:35;20.00;47.60
28374;DHT22;15616;40.148;-102.718;2022-12-05T04:16:12;20.00;47.60
28374;DHT22;15616;40.148;-102.718;2022-12-05T04:19:08;20.00;47.60
28374;DHT22;15616;40.148;-102.718;2022-12-05T04:21:41;20.00;47.60
28374;DHT22;15616;40.148;-102.718;2022-12-05T04:24:13;20.00;47.60
28374;DHT22;15616;40.148;-102.718;2022-12-05T04:30:02;20.00;47.60
28374;DHT22;15616;40.148;-102.718;2022-12-05T04:32:37;20.00;47.70
28374;DHT22;15616;40.148;-102.718;2022-12-05T04:35:10;20.00;47.70
28374;DHT22;15616;40.148;-102.718;2022-12-05T04:37:43;20.00;47.70
28374;DHT22;15616;40.148;-102.718;2022-12-05T04:40:23;20.00;47.70
28374;DHT22;15616;40.148;-102.718;2022-12-05T04:42:52;20.00;47.70
28374;DHT22;15616;40.148;-102.718;2022-12-05T04:45:20;19.90;47.70
28374;DHT22;15616;40.148;-102.718;2022-12-05T04:47:52;19.90;47.60
28374;DHT22;15616;40.148;-102.718;2022-12-05T04:50:22;20.00;47.70
28374;DHT22;15616;40.148;-102.718;2022-12-05T04:52:51;20.00;47.70
28374;DHT22;15616;40.148;-102.718;2022-12-05T04:55:24;20.00;47.70
28374;DHT22;15616;40.148;-102.718;2022-12-05T04:58:10;20.00;47.60
28374;DHT22;15616;40.148;-102.718;2022-12-05T05:03:27;20.00;47.60
28374;DHT22;15616;40.148;-102.718;2022-12-05T05:05:56;20.00;47.60
28374;DHT22;15616;40.148;-102.718;2022-12-05T05:08:24;20.00;47.70
28374;DHT22;15616;40.148;-102.718;2022-12-05T05:13:32;20.00;47.60
28374;DHT22;15616;40.148;-102.718;2022-12-05T05:15:58;20.00;47.60
28374;DHT22;15616;40.148;-102.718;2022-12-05T05:18:24;20.00;47.60
28374;DHT22;15616;40.148;-102.718;2022-12-05T05:20:50;20.00;47.70
28374;DHT22;15616;40.148;-102.718;2022-12-05T05:23:16;20.00;47.70
28374;DHT22;15616;40.148;-102.718;2022-12-05T05:25:41;20.00;48.40
28374;DHT22;15616;40.148;-102.718;2022-12-05T05:28:07;20.00;47.70
28374;DHT22;15616;40.148;-102.718;2022-12-05T05:30:33;19.90;47.60
28374;DHT22;15616;40.148;-102.718;2022-12-05T05:32:59;19.90;47.70
28374;DHT22;15616;40.148;-102.718;2022-12-05T05:35:25;19.90;47.70
28374;DHT22;15616;40.148;-102.718;2022-12-05T05:37:51;19.90;47.70
28374;DHT22;15616;40.148;-102.718;2022-12-05T05:40:17;19.90;47.70
28374;DHT22;15616;40.148;-102.718;2022-12-05T05:42:47;19.90;47.70
28374;DHT22;15616;40.148;-102.718;2022-12-05T05:45:15;19.90;47.70
28374;DHT22;15616;40.148;-102.718;2022-12-05T05:47:42;19.90;47.70
28374;DHT22;15616;40.148;-102.718;2022-12-05T05:50:09;19.90;47.70
28374;DHT22;15616;40.148;-102.718;2022-12-05T05:52:36;20.00;47.70
28374;DHT22;15616;40.148;-102.718;2022-12-05T05:55:04;20.00;47.70
28374;DHT22;15616;40.148;-102.718;2022-12-05T05:57:30;20.00;47.60
28374;DHT22;15616;40.148;-102.718;2022-12-05T05:59:56;20.00;47.70
28374;DHT22;15616;40.148;-102.718;2022-12-05T06:02:22;20.00;47.70
28374;DHT22;15616;40.148;-102.718;2022-12-05T06:04:48;20.00;47.70
28374;DHT22;15616;40.148;-102.718;2022-12-05T06:07:14;20.00;47.70
28374;DHT22;15616;40.148;-102.718;2022-12-05T06:09:40;19.90;47.60
28374;DHT22;15616;40.148;-102.718;2022-12-05T06:12:07;20.00;47.70
28374;DHT22;15616;40.148;-102.718;2022-12-05T06:14:32;20.00;47.70
28374;DHT22;15616;40.148;-102.718;2022-12-05T06:16:58;20.00;47.70
28374;DHT22;15616;40.148;-102.718;2022-12-05T06:19:24;20.00;47.70
28374;DHT22;15616;40.148;-102.718;2022-12-05T06:21:50;20.00;47.70
28374;DHT22;15616;40.148;-102.718;2022-12-05T06:24:17;20.00;47.70
28374;DHT22;15616;40.148;-102.718;2022-12-05T06:26:43;20.00;47.70
28374;DHT22;15616;40.148;-102.718;2022-12-05T06:29:09;20.00;47.70
28374;DHT22;15616;40.148;-102.718;2022-12-05T06:31:35;20.00;47.70
28374;DHT22;15616;40.148;-102.718;2022-12-05T06:34:02;20.00;47.70
28374;DHT22;15616;40.148;-102.718;2022-12-05T06:36:29;20.00;47.70
28374;DHT22;15616;40.148;-102.718;2022-12-05T06:38:57;20.00;47.70
28374;DHT22;15616;40.148;-102.718;2022-12-05T06:41:23;20.00;47.70
28374;DHT22;15616;40.148;-102.718;2022-12-05T06:43:54;20.00;47.60
28374;DHT22;15616;40.148;-102.718;2022-12-05T06:46:21;20.10;47.60
28374;DHT22;15616;40.148;-102.718;2022-12-05T06:48:48;20.10;47.70
28374;DHT22;15616;40.148;-102.718;2022-12-05T06:51:15;20.10;47.70
28374;DHT22;15616;40.148;-102.718;2022-12-05T06:53:42;20.10;47.60
28374;DHT22;15616;40.148;-102.718;2022-12-05T06:56:13;20.10;47.60
28374;DHT22;15616;40.148;-102.718;2022-12-05T06:58:40;20.00;47.60
28374;DHT22;15616;40.148;-102.718;2022-12-05T07:01:11;20.00;47.60
28374;DHT22;15616;40.148;-102.718;2022-12-05T07:03:55;20.10;47.60
28374;DHT22;15616;40.148;-102.718;2022-12-05T07:06:21;20.00;47.60
28374;DHT22;15616;40.148;-102.718;2022-12-05T07:08:47;20.10;47.70
28374;DHT22;15616;40.148;-102.718;2022-12-05T07:11:13;20.00;47.60
28374;DHT22;15616;40.148;-102.718;2022-12-05T07:13:39;20.00;47.60
28374;DHT22;15616;40.148;-102.718;2022-12-05T07:16:05;20.00;47.60
28374;DHT22;15616;40.148;-102.718;2022-12-05T07:18:32;20.00;47.60
28374;DHT22;15616;40.148;-102.718;2022-12-05T07:21:00;20.00;47.60
28374;DHT22;15616;40.148;-102.718;2022-12-05T07:23:26;20.00;47.60
28374;DHT22;15616;40.148;-102.718;2022-12-05T07:25:53;20.10;47.60
28374;DHT22;15616;40.148;-102.718;2022-12-05T07:28:19;20.10;47.60
28374;DHT22;15616;40.148;-102.718;2022-12-05T07:30:45;20.10;47.60
28374;DHT22;15616;40.148;-102.718;2022-12-05T07:33:11;20.10;47.50
28374;DHT22;15616;40.148;-102.718;2022-12-05T07:35:37;20.10;47.50
28374;DHT22;15616;40.148;-102.718;2022-12-05T07:38:03;20.10;47.50
28374;DHT22;15616;40.148;-102.718;2022-12-05T07:40:29;20.10;47.50
28374;DHT22;15616;40.148;-102.718;2022-12-05T07:42:55;20.10;47.50
28374;DHT22;15616;40.148;-102.718;2022-12-05T07:45:21;20.10;47.40
28374;DHT22;15616;40.148;-102.718;2022-12-05T07:47:47;20.10;47.50
28374;DHT22;15616;40.148;-102.718;2022-12-05T07:50:14;20.10;47.50
28374;DHT22;15616;40.148;-102.718;2022-12-05T07:52:40;20.10;47.50
28374;DHT22;15616;40.148;-102.718;2022-12-05T07:55:07;20.10;47.50
28374;DHT22;15616;40.148;-102.718;2022-12-05T07:57:33;20.10;47.50
28374;DHT22;15616;40.148;-102.718;2022-12-05T07:59:59;20.10;47.50
28374;DHT22;15616;40.148;-102.718;2022-12-05T08:02:25;20.10;47.50
28374;DHT22;15616;40.148;-102.718;2022-12-05T08:04:50;20.10;47.50
28374;DHT22;15616;40.148;-102.718;2022-12-05T08:07:16;20.10;47.50
28374;DHT22;15616;40.148;-102.718;2022-12-05T08:09:42;20.10;47.50
28374;DHT22;15616;40.148;-102.718;2022-12-05T08:12:08;20.10;47.50
28374;DHT22;15616;40.148;-102.718;2022-12-05T08:14:34;20.20;47.50
28374;DHT22;15616;40.148;-102.718;2022-12-05T08:17:00;20.20;47.50
28374;DHT22;15616;40.148;-102.718;2022-12-05T08:19:26;20.20;47.50
28374;DHT22;15616;40.148;-102.718;2022-12-05T08:21:53;20.20;47.50
28374;DHT22;15616;40.148;-102.718;2022-12-05T08:24:20;20.20;47.40
28374;DHT22;15616;40.148;-102.718;2022-12-05T08:26:46;20.20;47.40
28374;DHT22;15616;40.148;-102.718;2022-12-05T08:29:13;20.20;47.40
28374;DHT22;15616;40.148;-102.718;2022-12-05T08:31:43;20.20;47.40
28374;DHT22;15616;40.148;-102.718;2022-12-05T08:34:11;20.20;47.50
28374;DHT22;15616;40.148;-102.718;2022-12-05T08:36:37;20.20;47.40
28374;DHT22;15616;40.148;-102.718;2022-12-05T08:39:05;20.20;47.40
28374;DHT22;15616;40.148;-102.718;2022-12-05T08:41:31;20.20;47.40
28374;DHT22;15616;40.148;-102.718;2022-12-05T08:44:00;20.20;47.40
28374;DHT22;15616;40.148;-102.718;2022-12-05T08:46:34;20.20;47.40
28374;DHT22;15616;40.148;-102.718;2022-12-05T08:49:01;20.20;47.50
28374;DHT22;15616;40.148;-102.718;2022-12-05T08:51:27;20.20;47.50
28374;DHT22;15616;40.148;-102.718;2022-12-05T08:53:53;20.20;47.50
28374;DHT22;15616;40.148;-102.718;2022-12-05T08:56:21;20.20;47.50
28374;DHT22;15616;40.148;-102.718;2022-12-05T08:58:47;20.20;47.50
28374;DHT22;15616;40.148;-102.718;2022-12-05T09:01:16;20.20;47.50
28374;DHT22;15616;40.148;-102.718;2022-12-05T09:03:43;20.20;47.50
28374;DHT22;15616;40.148;-102.718;2022-12-05T09:06:16;20.20;47.50
28374;DHT22;15616;40.148;-102.718;2022-12-05T09:09:00;20.20;47.50
28374;DHT22;15616;40.148;-102.718;2022-12-05T09:11:29;20.20;47.50
28374;DHT22;15616;40.148;-102.718;2022-12-05T09:13:57;20.20;47.60
28374;DHT22;15616;40.148;-102.718;2022-12-05T09:16:29;20.20;47.60
28374;DHT22;15616;40.148;-102.718;2022-12-05T09:18:55;20.20;47.60
28374;DHT22;15616;40.148;-102.718;2022-12-05T09:21:23;20.20;47.50
28374;DHT22;15616;40.148;-102.718;2022-12-05T09:23:50;20.20;47.50
28374;DHT22;15616;40.148;-102.718;2022-12-05T09:26:19;20.20;47.50
28374;DHT22;15616;40.148;-102.718;2022-12-05T09:28:46;20.20;47.60
28374;DHT22;15616;40.148;-102.718;2022-12-05T09:31:15;20.20;47.60
28374;DHT22;15616;40.148;-102.718;2022-12-05T09:33:42;20.20;47.60
28374;DHT22;15616;40.148;-102.718;2022-12-05T09:36:26;20.20;47.60
28374;DHT22;15616;40.148;-102.718;2022-12-05T09:38:53;20.30;47.50
28374;DHT22;15616;40.148;-102.718;2022-12-05T09:47:41;20.30;47.50
28374;DHT22;15616;40.148;-102.718;2022-12-05T09:55:50;20.30;47.50
28374;DHT22;15616;40.148;-102.718;2022-12-05T10:00:47;20.30;47.40
28374;DHT22;15616;40.148;-102.718;2022-12-05T10:03:40;20.30;47.40
28374;DHT22;15616;40.148;-102.718;2022-12-05T10:06:23;20.30;47.30
28374;DHT22;15616;40.148;-102.718;2022-12-05T10:11:37;20.30;47.40
28374;DHT22;15616;40.148;-102.718;2022-12-05T10:17:01;20.30;47.50
28374;DHT22;15616;40.148;-102.718;2022-12-05T10:19:34;20.30;47.60
28374;DHT22;15616;40.148;-102.718;2022-12-05T10:22:15;20.30;47.50
28374;DHT22;15616;40.148;-102.718;2022-12-05T10:24:50;20.30;47.50
28374;DHT22;15616;40.148;-102.718;2022-12-05T10:27:32;20.30;47.50
28374;DHT22;15616;40.148;-102.718;2022-12-05T10:30:16;20.30;47.50
28374;DHT22;15616;40.148;-102.718;2022-12-05T10:33:02;20.30;47.40
28374;DHT22;15616;40.148;-102.718;2022-12-05T10:35:35;20.30;47.50
28374;DHT22;15616;40.148;-102.718;2022-12-05T10:38:05;20.30;47.40
28374;DHT22;15616;40.148;-102.718;2022-12-05T10:40:39;20.30;47.50
28374;DHT22;15616;40.148;-102.718;2022-12-05T10:43:06;20.30;47.40
28374;DHT22;15616;40.148;-102.718;2022-12-05T10:45:38;20.30;47.40
28374;DHT22;15616;40.148;-102.718;2022-12-05T10:48:12;20.30;47.30
28374;DHT22;15616;40.148;-102.718;2022-12-05T10:50:39;20.30;47.40
28374;DHT22;15616;40.148;-102.718;2022-12-05T10:53:07;20.30;47.30
28374;DHT22;15616;40.148;-102.718;2022-12-05T10:55:40;20.30;47.30
28374;DHT22;15616;40.148;-102.718;2022-12-05T10:58:17;20.30;47.40
28374;DHT22;15616;40.148;-102.718;2022-12-05T11:01:08;20.30;47.40
28374;DHT22;15616;40.148;-102.718;2022-12-05T11:03:37;20.30;47.40
28374;DHT22;15616;40.148;-102.718;2022-12-05T11:06:29;20.30;47.50
28374;DHT22;15616;40.148;-102.718;2022-12-05T11:11:30;20.30;47.50
28374;DHT22;15616;40.148;-102.718;2022-12-05T11:14:06;20.30;47.50
28374;DHT22;15616;40.148;-102.718;2022-12-05T11:16:37;20.30;47.50
28374;DHT22;15616;40.148;-102.718;2022-12-05T11:19:25;20.30;47.50
28374;DHT22;15616;40.148;-102.718;2022-12-05T11:21:52;20.30;47.50
28374;DHT22;15616;40.148;-102.718;2022-12-05T11:24:39;20.20;47.50
28374;DHT22;15616;40.148;-102.718;2022-12-05T11:27:23;20.30;47.60
28374;DHT22;15616;40.148;-102.718;2022-12-05T11:32:35;20.30;47.60
28374;DHT22;15616;40.148;-102.718;2022-12-05T11:37:55;20.30;47.60
28374;DHT22;15616;40.148;-102.718;2022-12-05T11:54:11;20.30;47.80
28374;DHT22;15616;40.148;-102.718;2022-12-05T11:56:51;20.30;47.70
28374;DHT22;15616;40.148;-102.718;2022-12-05T12:02:28;20.30;47.70
28374;DHT22;15616;40.148;-102.718;2022-12-05T12:05:07;20.30;47.70
28374;DHT22;15616;40.148;-102.718;2022-12-05T12:10:22;20.30;47.80
28374;DHT22;15616;40.148;-102.718;2022-12-05T12:13:04;20.30;47.70
28374;DHT22;15616;40.148;-102.718;2022-12-05T12:15:55;20.30;47.70
28374;DHT22;15616;40.148;-102.718;2022-12-05T12:21:07;20.20;47.70
28374;DHT22;15616;40.148;-102.718;2022-12-05T12:24:13;20.30;47.70
28374;DHT22;15616;40.148;-102.718;2022-12-05T12:38:22;20.30;47.80
28374;DHT22;15616;40.148;-102.718;2022-12-05T12:40:52;20.30;47.80
28374;DHT22;15616;40.148;-102.718;2022-12-05T12:51:27;20.30;47.70
28374;DHT22;15616;40.148;-102.718;2022-12-05T12:57:56;20.30;47.60
28374;DHT22;15616;40.148;-102.718;2022-12-05T13:02:53;20.30;47.60
28374;DHT22;15616;40.148;-102.718;2022-12-05T13:05:41;20.30;47.60
28374;DHT22;15616;40.148;-102.718;2022-12-05T13:08:27;20.30;47.60
28374;DHT22;15616;40.148;-102.718;2022-12-05T13:10:57;20.30;47.50
28374;DHT22;15616;40.148;-102.718;2022-12-05T13:13:35;20.30;47.60
28374;DHT22;15616;40.148;-102.718;2022-12-05T13:16:04;20.30;47.60
28374;DHT22;15616;40.148;-102.718;2022-12-05T13:18:33;20.30;47.70
28374;DHT22;15616;40.148;-102.718;2022-12-05T13:21:05;20.30;47.70
28374;DHT22;15616;40.148;-102.718;2022-12-05T13:23:49;20.30;47.70
28374;DHT22;15616;40.148;-102.718;2022-12-05T13:26:16;20.30;47.60
28374;DHT22;15616;40.148;-102.718;2022-12-05T13:28:52;20.30;47.70
28374;DHT22;15616;40.148;-102.718;2022-12-05T13:31:43;20.30;47.70
28374;DHT22;15616;40.148;-102.718;2022-12-05T13:34:46;20.30;47.60
28374;DHT22;15616;40.148;-102.718;2022-12-05T13:37:22;20.30;47.60
28374;DHT22;15616;40.148;-102.718;2022-12-05T13:43:13;20.30;47.70
28374;DHT22;15616;40.148;-102.718;2022-12-05T13:45:41;20.30;47.80
28374;DHT22;15616;40.148;-102.718;2022-12-05T13:51:29;20.30;47.80
28374;DHT22;15616;40.148;-102.718;2022-12-05T13:54:12;20.30;47.80
28374;DHT22;15616;40.148;-102.718;2022-12-05T13:56:56;20.30;47.80
28374;DHT22;15616;40.148;-102.718;2022-12-05T14:00:02;20.30;47.70
28374;DHT22;15616;40.148;-102.718;2022-12-05T14:05:34;20.30;47.70
28374;DHT22;15616;40.148;-102.718;2022-12-05T14:08:49;20.40;47.70
28374;DHT22;15616;40.148;-102.718;2022-12-05T14:11:09;20.40;47.70
28374;DHT22;15616;40.148;-102.718;2022-12-05T14:13:40;20.30;47.80
28374;DHT22;15616;40.148;-102.718;2022-12-05T14:25:02;20.30;47.80
28374;DHT22;15616;40.148;-102.718;2022-12-05T14:27:44;20.30;47.80
28374;DHT22;15616;40.148;-102.718;2022-12-05T14:33:15;20.40;47.80
28374;DHT22;15616;40.148;-102.718;2022-12-05T14:35:46;20.30;47.80
28374;DHT22;15616;40.148;-102.718;2022-12-05T14:40:48;20.40;47.80
28374;DHT22;15616;40.148;-102.718;2022-12-05T14:43:21;20.40;47.80
28374;DHT22;15616;40.148;-102.718;2022-12-05T14:45:58;20.40;47.80
28374;DHT22;15616;40.148;-102.718;2022-12-05T14:48:26;20.40;47.70
28374;DHT22;15616;40.148;-102.718;2022-12-05T14:50:55;20.30;47.70
28374;DHT22;15616;40.148;-102.718;2022-12-05T14:53:39;20.30;47.80
28374;DHT22;15616;40.148;-102.718;2022-12-05T14:56:19;20.40;47.70
28374;DHT22;15616;40.148;-102.718;2022-12-05T14:58:52;20.40;47.80
28374;DHT22;15616;40.148;-102.718;2022-12-05T15:01:31;20.40;47.70
28374;DHT22;15616;40.148;-102.718;2022-12-05T15:04:16;20.40;47.70
28374;DHT22;15616;40.148;-102.718;2022-12-05T15:11:54;20.40;47.70
28374;DHT22;15616;40.148;-102.718;2022-12-05T15:14:22;20.40;47.80
28374;DHT22;15616;40.148;-102.718;2022-12-05T15:16:53;20.40;47.80
28374;DHT22;15616;40.148;-102.718;2022-12-05T15:19:26;20.40;47.70
28374;DHT22;15616;40.148;-102.718;2022-12-05T15:22:01;20.40;47.80
28374;DHT22;15616;40.148;-102.718;2022-12-05T15:24:36;20.40;47.70
28374;DHT22;15616;40.148;-102.718;2022-12-05T15:27:03;20.40;47.80
28374;DHT22;15616;40.148;-102.718;2022-12-05T15:29:30;20.40;47.80
28374;DHT22;15616;40.148;-102.718;2022-12-05T15:32:03;20.40;47.80
28374;DHT22;15616;40.148;-102.718;2022-12-05T15:35:10;20.40;47.80
28374;DHT22;15616;40.148;-102.718;2022-12-05T15:37:52;20.40;47.80
28374;DHT22;15616;40.148;-102.718;2022-12-05T15:40:21;20.40;47.80
28374;DHT22;15616;40.148;-102.718;2022-12-05T15:42:50;20.30;47.80
28374;DHT22;15616;40.148;-102.718;2022-12-05T15:45:28;20.30;47.80
28374;DHT22;15616;40.148;-102.718;2022-12-05T15:50:36;20.30;47.80
28374;DHT22;15616;40.148;-102.718;2022-12-05T15:55:48;20.30;47.90
28374;DHT22;15616;40.148;-102.718;2022-12-05T15:58:45;20.30;47.80
28374;DHT22;15616;40.148;-102.718;2022-12-05T16:01:20;20.30;47.80
28374;DHT22;15616;40.148;-102.718;2022-12-05T16:04:05;20.30;47.90
28374;DHT22;15616;40.148;-102.718;2022-12-05T16:06:41;20.30;47.90
28374;DHT22;15616;40.148;-102.718;2022-12-05T16:09:14;20.30;47.90
28374;DHT22;15616;40.148;-102.718;2022-12-05T16:11:59;20.30;47.90
28374;DHT22;15616;40.148;-102.718;2022-12-05T16:14:33;20.30;47.90
28374;DHT22;15616;40.148;-102.718;2022-12-05T16:17:00;20.30;47.90
28374;DHT22;15616;40.148;-102.718;2022-12-05T16:19:28;20.30;47.90
28374;DHT22;15616;40.148;-102.718;2022-12-05T16:22:24;20.40;47.90
28374;DHT22;15616;40.148;-102.718;2022-12-05T16:24:59;20.30;47.80
28374;DHT22;15616;40.148;-102.718;2022-12-05T16:27:32;20.30;47.90
28374;DHT22;15616;40.148;-102.718;2022-12-05T16:32:41;20.40;47.90
28374;DHT22;15616;40.148;-102.718;2022-12-05T16:35:40;20.30;47.90
28374;DHT22;15616;40.148;-102.718;2022-12-05T16:38:18;20.30;47.90
28374;DHT22;15616;40.148;-102.718;2022-12-05T16:43:48;20.30;48.00
28374;DHT22;15616;40.148;-102.718;2022-12-05T16:48:41;20.20;48.00
28374;DHT22;15616;40.148;-102.718;2022-12-05T16:51:24;20.30;48.10
28374;DHT22;15616;40.148;-102.718;2022-12-05T16:53:53;20.30;48.00
28374;DHT22;15616;40.148;-102.718;2022-12-05T16:56:28;20.20;48.00
28374;DHT22;15616;40.148;-102.718;2022-12-05T16:58:55;20.30;48.10
28374;DHT22;15616;40.148;-102.718;2022-12-05T17:01:24;20.20;48.10
28374;DHT22;15616;40.148;-102.718;2022-12-05T17:03:50;20.20;48.10
28374;DHT22;15616;40.148;-102.718;2022-12-05T17:06:19;20.20;48.10
28374;DHT22;15616;40.148;-102.718;2022-12-05T17:08:46;20.20;48.10
28374;DHT22;15616;40.148;-102.718;2022-12-05T17:11:24;20.20;48.10
28374;DHT22;15616;40.148;-102.718;2022-12-05T17:13:51;20.30;48.20
28374;DHT22;15616;40.148;-102.718;2022-12-05T17:16:18;20.20;48.10
28374;DHT22;15616;40.148;-102.718;2022-12-05T17:18:45;20.20;48.10
28374;DHT22;15616;40.148;-102.718;2022-12-05T17:21:16;20.20;48.10
28374;DHT22;15616;40.148;-102.718;2022-12-05T17:23:44;20.20;48.10
28374;DHT22;15616;40.148;-102.718;2022-12-05T17:26:15;20.20;48.20
28374;DHT22;15616;40.148;-102.718;2022-12-05T17:28:41;20.20;48.20
28374;DHT22;15616;40.148;-102.718;2022-12-05T17:31:33;20.20;48.20
28374;DHT22;15616;40.148;-102.718;2022-12-05T17:34:00;20.20;48.20
28374;DHT22;15616;40.148;-102.718;2022-12-05T17:36:26;20.20;48.20
28374;DHT22;15616;40.148;-102.718;2022-12-05T17:38:52;20.20;48.30
28374;DHT22;15616;40.148;-102.718;2022-12-05T17:41:21;20.20;48.20
28374;DHT22;15616;40.148;-102.718;2022-12-05T17:43:48;20.20;48.20
28374;DHT22;15616;40.148;-102.718;2022-12-05T17:46:19;20.20;48.30